sensor_id;sensor_type;location;lat;lon;timestamp;pressure;altitude;pressure_sealevel;temperature;humidity
51245;BME280;37840;47.562;18.738;2024-03-22T00:00:48;100031.81;;;9.94;67.75
51245;BME280;37840;47.562;18.738;2024-03-22T00:03:13;100025.47;;;9.97;67.58
51245;BME280;37840;47.562;18.738;2024-03-22T00:05:39;100023.66;;;9.97;67.31
51245;BME280;37840;47.562;18.738;2024-03-22T00:08:05;100025.56;;;9.95;67.51
51245;BME280;37840;47.562;18.738;2024-03-22T00:10:31;100026.41;;;9.96;68.05
51245;BME280;37840;47.562;18.738;2024-03-22T00:12:57;100014.84;;;9.97;67.91
51245;BME280;37840;47.562;18.738;2024-03-22T00:15:23;100021.84;;;9.98;67.97
51245;BME280;37840;47.562;18.738;2024-03-22T00:17:49;100023.75;;;9.96;68.28
51245;BME280;37840;47.562;18.738;2024-03-22T00:20:15;100024.59;;;9.96;68.53
51245;BME280;37840;47.562;18.738;2024-03-22T00:22:41;100022.81;;;9.97;68.50
51245;BME280;37840;47.562;18.738;2024-03-22T00:25:07;100025.72;;;9.92;69.08
51245;BME280;37840;47.562;18.738;2024-03-22T00:27:33;100021.59;;;9.88;70.15
51245;BME280;37840;47.562;18.738;2024-03-22T00:29:59;100021.59;;;9.88;70.48
51245;BME280;37840;47.562;18.738;2024-03-22T00:32:25;100012.75;;;9.88;70.56
51245;BME280;37840;47.562;18.738;2024-03-22T00:34:51;100019.78;;;9.89;70.42
51245;BME280;37840;47.562;18.738;2024-03-22T00:37:17;100014.38;;;9.90;70.43
51245;BME280;37840;47.562;18.738;2024-03-22T00:39:43;100006.19;;;9.93;70.12
51245;BME280;37840;47.562;18.738;2024-03-22T00:42:08;100009.69;;;9.94;69.91
51245;BME280;37840;47.562;18.738;2024-03-22T00:44:34;100006.00;;;9.96;69.92
51245;BME280;37840;47.562;18.738;2024-03-22T00:47:00;100001.44;;;9.98;69.74
51245;BME280;37840;47.562;18.738;2024-03-22T00:49:29;100006.75;;;9.98;69.65
51245;BME280;37840;47.562;18.738;2024-03-22T00:51:55;100007.50;;;10.00;69.57
51245;BME280;37840;47.562;18.738;2024-03-22T00:54:22;100005.72;;;10.01;69.42
51245;BME280;37840;47.562;18.738;2024-03-22T00:56:48;100001.25;;;10.02;69.32
51245;BME280;37840;47.562;18.738;2024-03-22T00:59:14;100003.81;;;10.03;69.50
51245;BME280;37840;47.562;18.738;2024-03-22T01:01:40;100002.84;;;10.04;69.46
51245;BME280;37840;47.562;18.738;2024-03-22T01:04:06;100006.34;;;10.05;69.58
51245;BME280;37840;47.562;18.738;2024-03-22T01:06:34;100007.41;;;10.02;69.46
51245;BME280;37840;47.562;18.738;2024-03-22T01:09:00;100008.16;;;10.04;69.69
51245;BME280;37840;47.562;18.738;2024-03-22T01:11:26;100002.19;;;10.00;69.53
51245;BME280;37840;47.562;18.738;2024-03-22T01:13:52;100002.19;;;10.00;69.64
51245;BME280;37840;47.562;18.738;2024-03-22T01:16:18;100011.13;;;9.99;69.37
51245;BME280;37840;47.562;18.738;2024-03-22T01:18:44;100010.81;;;10.04;69.17
51245;BME280;37840;47.562;18.738;2024-03-22T01:21:10;100016.81;;;10.08;69.12
51245;BME280;37840;47.562;18.738;2024-03-22T01:23:36;100006.94;;;10.10;69.31
51245;BME280;37840;47.562;18.738;2024-03-22T01:26:02;100011.09;;;10.14;69.25
51245;BME280;37840;47.562;18.738;2024-03-22T01:28:28;100013.63;;;10.15;69.13
51245;BME280;37840;47.562;18.738;2024-03-22T01:30:54;100006.63;;;10.14;69.95
51245;BME280;37840;47.562;18.738;2024-03-22T01:33:20;100012.12;;;10.11;70.01
51245;BME280;37840;47.562;18.738;2024-03-22T01:35:45;100004.69;;;9.89;69.94
51245;BME280;37840;47.562;18.738;2024-03-22T01:38:11;100005.28;;;9.80;70.18
51245;BME280;37840;47.562;18.738;2024-03-22T01:40:37;100004.16;;;9.70;69.96
51245;BME280;37840;47.562;18.738;2024-03-22T01:43:03;100006.72;;;9.71;70.42
51245;BME280;37840;47.562;18.738;2024-03-22T01:45:32;100014.50;;;9.74;70.86
51245;BME280;37840;47.562;18.738;2024-03-22T01:47:59;100013.72;;;9.72;70.78
51245;BME280;37840;47.562;18.738;2024-03-22T01:50:27;100010.22;;;9.72;71.35
51245;BME280;37840;47.562;18.738;2024-03-22T01:52:53;100004.84;;;9.73;71.42
51245;BME280;37840;47.562;18.738;2024-03-22T01:55:20;100001.41;;;9.71;71.78
51245;BME280;37840;47.562;18.738;2024-03-22T01:57:48;99998.00;;;9.69;72.02
51245;BME280;37840;47.562;18.738;2024-03-22T02:00:14;99999.69;;;9.70;72.34
51245;BME280;37840;47.562;18.738;2024-03-22T02:02:40;100004.06;;;9.71;72.08
51245;BME280;37840;47.562;18.738;2024-03-22T02:07:39;100002.72;;;9.78;71.83
51245;BME280;37840;47.562;18.738;2024-03-22T02:10:05;100007.81;;;9.82;71.58
51245;BME280;37840;47.562;18.738;2024-03-22T02:12:34;100004.91;;;9.86;71.59
51245;BME280;37840;47.562;18.738;2024-03-22T02:15:00;100004.69;;;9.89;71.79
51245;BME280;37840;47.562;18.738;2024-03-22T02:17:27;100002.56;;;9.94;72.49
51245;BME280;37840;47.562;18.738;2024-03-22T02:19:53;99998.78;;;9.98;73.35
51245;BME280;37840;47.562;18.738;2024-03-22T02:22:19;100002.94;;;10.03;74.37
51245;BME280;37840;47.562;18.738;2024-03-22T02:24:45;99998.28;;;10.06;75.87
51245;BME280;37840;47.562;18.738;2024-03-22T02:27:11;100001.69;;;10.08;74.22
51245;BME280;37840;47.562;18.738;2024-03-22T02:29:37;100008.72;;;10.09;73.21
51245;BME280;37840;47.562;18.738;2024-03-22T02:32:03;100007.31;;;10.04;73.56
51245;BME280;37840;47.562;18.738;2024-03-22T02:34:29;100003.34;;;9.96;74.23
51245;BME280;37840;47.562;18.738;2024-03-22T02:36:55;100006.19;;;9.93;74.58
51245;BME280;37840;47.562;18.738;2024-03-22T02:39:21;100003.84;;;9.89;75.27
51245;BME280;37840;47.562;18.738;2024-03-22T02:41:47;99996.94;;;9.86;75.52
51245;BME280;37840;47.562;18.738;2024-03-22T02:44:13;99992.56;;;9.85;75.16
51245;BME280;37840;47.562;18.738;2024-03-22T02:46:39;99996.19;;;9.84;74.99
51245;BME280;37840;47.562;18.738;2024-03-22T02:49:04;99987.34;;;9.84;74.51
51245;BME280;37840;47.562;18.738;2024-03-22T02:51:30;99990.88;;;9.84;74.65
51245;BME280;37840;47.562;18.738;2024-03-22T02:53:56;99984.78;;;9.82;74.95
51245;BME280;37840;47.562;18.738;2024-03-22T02:56:23;99992.75;;;9.82;75.33
51245;BME280;37840;47.562;18.738;2024-03-22T02:58:49;99989.12;;;9.83;75.44
51245;BME280;37840;47.562;18.738;2024-03-22T03:01:15;99981.09;;;9.85;74.93
51245;BME280;37840;47.562;18.738;2024-03-22T03:03:41;99983.66;;;9.86;74.92
51245;BME280;37840;47.562;18.738;2024-03-22T03:06:07;99987.81;;;9.90;74.69
51245;BME280;37840;47.562;18.738;2024-03-22T03:08:34;99985.16;;;9.90;74.36
51245;BME280;37840;47.562;18.738;2024-03-22T03:11:00;99980.56;;;9.92;74.43
51245;BME280;37840;47.562;18.738;2024-03-22T03:13:26;99983.97;;;9.94;74.14
51245;BME280;37840;47.562;18.738;2024-03-22T03:15:52;99979.72;;;9.92;74.39
51245;BME280;37840;47.562;18.738;2024-03-22T03:18:18;99983.22;;;9.92;75.00
51245;BME280;37840;47.562;18.738;2024-03-22T03:20:44;99974.31;;;9.93;75.63
51245;BME280;37840;47.562;18.738;2024-03-22T03:23:10;99977.91;;;9.92;76.01
51245;BME280;37840;47.562;18.738;2024-03-22T03:25:36;99986.84;;;9.91;76.33
51245;BME280;37840;47.562;18.738;2024-03-22T03:28:02;99993.84;;;9.92;76.65
51245;BME280;37840;47.562;18.738;2024-03-22T03:30:28;99993.13;;;9.90;76.32
51245;BME280;37840;47.562;18.738;2024-03-22T03:32:53;99992.25;;;9.90;76.46
51245;BME280;37840;47.562;18.738;2024-03-22T03:35:19;99996.94;;;9.86;76.24
51245;BME280;37840;47.562;18.738;2024-03-22T03:37:45;100002.13;;;9.88;75.95
51245;BME280;37840;47.562;18.738;2024-03-22T03:40:11;99994.06;;;9.89;76.35
51245;BME280;37840;47.562;18.738;2024-03-22T03:42:37;99994.81;;;9.91;76.30
51245;BME280;37840;47.562;18.738;2024-03-22T03:45:03;100003.53;;;9.93;76.18
51245;BME280;37840;47.562;18.738;2024-03-22T03:47:29;100005.16;;;9.96;76.17
51245;BME280;37840;47.562;18.738;2024-03-22T03:49:55;100001.72;;;9.94;77.32
51245;BME280;37840;47.562;18.738;2024-03-22T03:52:21;100002.56;;;9.94;78.43
51245;BME280;37840;47.562;18.738;2024-03-22T03:54:47;99997.25;;;9.94;79.26
51245;BME280;37840;47.562;18.738;2024-03-22T03:57:13;99993.59;;;9.97;79.55
51245;BME280;37840;47.562;18.738;2024-03-22T03:59:39;100006.13;;;9.95;79.63
51245;BME280;37840;47.562;18.738;2024-03-22T04:02:05;100003.75;;;9.90;79.99
51245;BME280;37840;47.562;18.738;2024-03-22T04:04:31;100000.22;;;9.90;78.96
51245;BME280;37840;47.562;18.738;2024-03-22T04:06:57;100000.34;;;9.88;78.22
51245;BME280;37840;47.562;18.738;2024-03-22T04:09:23;100000.44;;;9.87;76.75
51245;BME280;37840;47.562;18.738;2024-03-22T04:11:49;99996.19;;;9.84;76.34
51245;BME280;37840;47.562;18.738;2024-03-22T04:14:14;100002.72;;;9.78;76.30
51245;BME280;37840;47.562;18.738;2024-03-22T04:16:40;100000.37;;;9.74;76.49
51245;BME280;37840;47.562;18.738;2024-03-22T04:19:06;100003.09;;;9.72;76.30
51245;BME280;37840;47.562;18.738;2024-03-22T04:21:33;100011.28;;;9.69;76.39
51245;BME280;37840;47.562;18.738;2024-03-22T04:23:59;100014.13;;;9.66;76.23
51245;BME280;37840;47.562;18.738;2024-03-22T04:26:25;100013.56;;;9.61;76.44
51245;BME280;37840;47.562;18.738;2024-03-22T04:28:51;100009.31;;;9.58;77.07
51245;BME280;37840;47.562;18.738;2024-03-22T04:31:17;100006.66;;;9.58;77.73
51245;BME280;37840;47.562;18.738;2024-03-22T04:33:42;100012.81;;;9.59;78.11
51245;BME280;37840;47.562;18.738;2024-03-22T04:36:08;100011.75;;;9.62;78.47
51245;BME280;37840;47.562;18.738;2024-03-22T04:38:35;100014.19;;;9.65;78.69
51245;BME280;37840;47.562;18.738;2024-03-22T04:41:01;100003.56;;;9.65;78.89
51245;BME280;37840;47.562;18.738;2024-03-22T04:43:27;100015.09;;;9.65;79.19
51245;BME280;37840;47.562;18.738;2024-03-22T04:45:54;100010.69;;;9.64;79.24
51245;BME280;37840;47.562;18.738;2024-03-22T04:48:20;100018.59;;;9.66;79.31
51245;BME280;37840;47.562;18.738;2024-03-22T04:50:51;100022.66;;;9.71;79.13
51245;BME280;37840;47.562;18.738;2024-03-22T04:53:18;100014.50;;;9.74;78.78
51245;BME280;37840;47.562;18.738;2024-03-22T04:55:44;100013.44;;;9.77;79.04
51245;BME280;37840;47.562;18.738;2024-03-22T04:58:17;100022.06;;;9.80;79.05
51245;BME280;37840;47.562;18.738;2024-03-22T05:00:45;100016.66;;;9.82;79.04
51245;BME280;37840;47.562;18.738;2024-03-22T05:03:11;100017.06;;;9.76;79.83
51245;BME280;37840;47.562;18.738;2024-03-22T05:05:38;100021.59;;;9.74;80.01
51245;BME280;37840;47.562;18.738;2024-03-22T05:08:04;100015.34;;;9.75;80.14
51245;BME280;37840;47.562;18.738;2024-03-22T05:10:30;100018.00;;;9.75;80.60
51245;BME280;37840;47.562;18.738;2024-03-22T05:12:57;100019.72;;;9.76;80.21
51245;BME280;37840;47.562;18.738;2024-03-22T05:15:23;100023.22;;;9.76;80.41
51245;BME280;37840;47.562;18.738;2024-03-22T05:17:51;100014.41;;;9.76;80.72
51245;BME280;37840;47.562;18.738;2024-03-22T05:20:17;100014.28;;;9.77;80.62
51245;BME280;37840;47.562;18.738;2024-03-22T05:22:43;100017.81;;;9.78;80.47
51245;BME280;37840;47.562;18.738;2024-03-22T05:25:09;100012.38;;;9.79;80.35
51245;BME280;37840;47.562;18.738;2024-03-22T05:27:36;100017.50;;;9.83;80.66
51245;BME280;37840;47.562;18.738;2024-03-22T05:30:02;100013.03;;;9.83;80.39
51245;BME280;37840;47.562;18.738;2024-03-22T05:32:31;100011.06;;;9.87;79.80
51245;BME280;37840;47.562;18.738;2024-03-22T05:34:57;100013.81;;;9.85;80.31
51245;BME280;37840;47.562;18.738;2024-03-22T05:37:23;100008.50;;;9.85;80.89
51245;BME280;37840;47.562;18.738;2024-03-22T05:39:49;100007.66;;;9.85;81.55
51245;BME280;37840;47.562;18.738;2024-03-22T05:42:15;100012.19;;;9.83;82.62
51245;BME280;37840;47.562;18.738;2024-03-22T05:44:41;100007.56;;;9.86;83.36
51245;BME280;37840;47.562;18.738;2024-03-22T05:47:07;100003.00;;;9.88;85.81
51245;BME280;37840;47.562;18.738;2024-03-22T05:49:33;100006.97;;;9.95;86.69
51245;BME280;37840;47.562;18.738;2024-03-22T05:51:59;99997.09;;;9.97;87.95
51245;BME280;37840;47.562;18.738;2024-03-22T05:54:25;100004.44;;;10.07;87.99
51245;BME280;37840;47.562;18.738;2024-03-22T05:56:50;100001.41;;;10.13;88.04
51245;BME280;37840;47.562;18.738;2024-03-22T05:59:16;100002.72;;;10.20;88.00
51245;BME280;37840;47.562;18.738;2024-03-22T06:01:42;100008.34;;;10.28;87.60
51245;BME280;37840;47.562;18.738;2024-03-22T06:04:08;100002.19;;;10.28;87.61
51245;BME280;37840;47.562;18.738;2024-03-22T06:06:35;100005.25;;;10.36;87.07
51245;BME280;37840;47.562;18.738;2024-03-22T06:09:02;100007.41;;;10.44;87.10
51245;BME280;37840;47.562;18.738;2024-03-22T06:11:35;100005.19;;;10.50;87.27
51245;BME280;37840;47.562;18.738;2024-03-22T06:14:01;100006.47;;;10.57;87.07
51245;BME280;37840;47.562;18.738;2024-03-22T06:16:27;100006.16;;;10.62;87.10
51245;BME280;37840;47.562;18.738;2024-03-22T06:18:53;100002.56;;;10.63;88.12
51245;BME280;37840;47.562;18.738;2024-03-22T06:21:22;100003.50;;;10.62;87.97
51245;BME280;37840;47.562;18.738;2024-03-22T06:23:51;100004.25;;;10.64;87.90
51245;BME280;37840;47.562;18.738;2024-03-22T06:26:17;100000.53;;;10.67;87.65
51245;BME280;37840;47.562;18.738;2024-03-22T06:28:44;99995.97;;;10.69;88.39
51245;BME280;37840;47.562;18.738;2024-03-22T06:31:13;99992.44;;;10.68;87.99
51245;BME280;37840;47.562;18.738;2024-03-22T06:33:38;99999.19;;;10.74;87.92
51245;BME280;37840;47.562;18.738;2024-03-22T06:36:05;99995.66;;;10.73;87.76
51245;BME280;37840;47.562;18.738;2024-03-22T06:38:31;99994.37;;;10.79;87.35
51245;BME280;37840;47.562;18.738;2024-03-22T06:40:57;99994.19;;;10.82;87.53
51245;BME280;37840;47.562;18.738;2024-03-22T06:43:24;100004.50;;;10.87;86.61
51245;BME280;37840;47.562;18.738;2024-03-22T06:45:50;100001.44;;;10.93;86.80
51245;BME280;37840;47.562;18.738;2024-03-22T06:48:16;100003.88;;;10.96;87.09
51245;BME280;37840;47.562;18.738;2024-03-22T06:50:42;100005.47;;;10.98;86.60
51245;BME280;37840;47.562;18.738;2024-03-22T06:53:08;100007.84;;;11.03;85.98
51245;BME280;37840;47.562;18.738;2024-03-22T06:55:36;100004.19;;;11.04;85.62
51245;BME280;37840;47.562;18.738;2024-03-22T06:58:02;100013.91;;;11.05;86.62
51245;BME280;37840;47.562;18.738;2024-03-22T07:00:28;100013.69;;;11.08;86.85
51245;BME280;37840;47.562;18.738;2024-03-22T07:02:54;100011.03;;;11.08;86.44
51245;BME280;37840;47.562;18.738;2024-03-22T07:05:21;100011.78;;;11.10;86.71
51245;BME280;37840;47.562;18.738;2024-03-22T07:07:47;100019.53;;;11.13;86.46
51245;BME280;37840;47.562;18.738;2024-03-22T07:10:15;100013.25;;;11.14;87.17
51245;BME280;37840;47.562;18.738;2024-03-22T07:12:41;100015.81;;;11.16;86.93
51245;BME280;37840;47.562;18.738;2024-03-22T07:15:07;100009.44;;;11.18;86.21
51245;BME280;37840;47.562;18.738;2024-03-22T07:17:33;100021.78;;;11.19;85.69
51245;BME280;37840;47.562;18.738;2024-03-22T07:19:59;100016.34;;;11.21;84.83
51245;BME280;37840;47.562;18.738;2024-03-22T07:22:25;100013.78;;;11.19;84.80
51245;BME280;37840;47.562;18.738;2024-03-22T07:24:51;100026.16;;;11.20;84.59
51245;BME280;37840;47.562;18.738;2024-03-22T07:27:17;100019.00;;;11.21;84.78
51245;BME280;37840;47.562;18.738;2024-03-22T07:29:46;100020.50;;;11.25;84.83
51245;BME280;37840;47.562;18.738;2024-03-22T07:32:12;100033.81;;;11.25;84.70
51245;BME280;37840;47.562;18.738;2024-03-22T07:34:38;100022.31;;;11.25;84.58
51245;BME280;37840;47.562;18.738;2024-03-22T07:37:04;100019.53;;;11.26;84.85
51245;BME280;37840;47.562;18.738;2024-03-22T07:39:30;100025.59;;;11.28;85.31
51245;BME280;37840;47.562;18.738;2024-03-22T07:41:56;100028.91;;;11.32;85.26
51245;BME280;37840;47.562;18.738;2024-03-22T07:44:22;100033.06;;;11.36;85.96
51245;BME280;37840;47.562;18.738;2024-03-22T07:46:52;100028.38;;;11.39;85.39
51245;BME280;37840;47.562;18.738;2024-03-22T07:49:18;100025.41;;;11.44;84.94
51245;BME280;37840;47.562;18.738;2024-03-22T07:51:44;100029.75;;;11.45;84.75
51245;BME280;37840;47.562;18.738;2024-03-22T07:54:10;100029.56;;;11.48;84.19
51245;BME280;37840;47.562;18.738;2024-03-22T07:56:36;100026.66;;;11.51;83.92
51245;BME280;37840;47.562;18.738;2024-03-22T07:59:02;100030.06;;;11.53;84.84
51245;BME280;37840;47.562;18.738;2024-03-22T08:01:28;100044.97;;;11.56;84.80
51245;BME280;37840;47.562;18.738;2024-03-22T08:03:54;100046.78;;;11.55;84.04
51245;BME280;37840;47.562;18.738;2024-03-22T08:06:20;100042.84;;;11.61;83.31
51245;BME280;37840;47.562;18.738;2024-03-22T08:08:46;100036.44;;;11.63;84.03
51245;BME280;37840;47.562;18.738;2024-03-22T08:11:12;100030.47;;;11.60;83.21
51245;BME280;37840;47.562;18.738;2024-03-22T08:13:38;100037.63;;;11.59;83.57
51245;BME280;37840;47.562;18.738;2024-03-22T08:16:05;100037.63;;;11.59;83.25
51245;BME280;37840;47.562;18.738;2024-03-22T08:18:32;100036.56;;;11.62;84.31
51245;BME280;37840;47.562;18.738;2024-03-22T08:20:58;100033.78;;;11.63;83.45
51245;BME280;37840;47.562;18.738;2024-03-22T08:23:25;100035.50;;;11.65;84.01
51245;BME280;37840;47.562;18.738;2024-03-22T08:25:51;100037.94;;;11.68;83.52
51245;BME280;37840;47.562;18.738;2024-03-22T08:28:17;100039.53;;;11.70;83.56
51245;BME280;37840;47.562;18.738;2024-03-22T08:30:43;100042.09;;;11.72;84.19
51245;BME280;37840;47.562;18.738;2024-03-22T08:33:10;100039.84;;;11.78;85.24
51245;BME280;37840;47.562;18.738;2024-03-22T08:35:37;100041.84;;;11.88;84.95
51245;BME280;37840;47.562;18.738;2024-03-22T08:38:04;100036.63;;;11.99;84.44
51245;BME280;37840;47.562;18.738;2024-03-22T08:40:31;100039.38;;;12.10;83.09
51245;BME280;37840;47.562;18.738;2024-03-22T08:42:57;100031.31;;;12.23;83.39
51245;BME280;37840;47.562;18.738;2024-03-22T08:45:23;100035.75;;;12.35;81.40
51245;BME280;37840;47.562;18.738;2024-03-22T08:47:49;100031.75;;;12.41;81.06
51245;BME280;37840;47.562;18.738;2024-03-22T08:50:15;100026.13;;;12.46;80.21
51245;BME280;37840;47.562;18.738;2024-03-22T08:52:41;100031.44;;;12.46;80.17
51245;BME280;37840;47.562;18.738;2024-03-22T08:55:07;100030.37;;;12.48;81.11
51245;BME280;37840;47.562;18.738;2024-03-22T08:57:33;100030.84;;;12.53;80.90
51245;BME280;37840;47.562;18.738;2024-03-22T08:59:59;100032.34;;;12.57;80.40
51245;BME280;37840;47.562;18.738;2024-03-22T09:02:25;100016.50;;;12.67;79.88
51245;BME280;37840;47.562;18.738;2024-03-22T09:04:52;100017.72;;;12.74;79.96
51245;BME280;37840;47.562;18.738;2024-03-22T09:07:19;100021.50;;;12.83;79.14
51245;BME280;37840;47.562;18.738;2024-03-22T09:09:45;100007.13;;;12.97;78.98
51245;BME280;37840;47.562;18.738;2024-03-22T09:12:11;100005.31;;;13.09;78.24
51245;BME280;37840;47.562;18.738;2024-03-22T09:14:37;99994.88;;;13.17;77.99
51245;BME280;37840;47.562;18.738;2024-03-22T09:17:03;99997.56;;;13.28;77.97
51245;BME280;37840;47.562;18.738;2024-03-22T09:19:29;99998.72;;;13.37;76.43
51245;BME280;37840;47.562;18.738;2024-03-22T09:21:55;99993.59;;;13.45;75.75
51245;BME280;37840;47.562;18.738;2024-03-22T09:24:21;99991.31;;;13.52;75.32
51245;BME280;37840;47.562;18.738;2024-03-22T09:26:47;99987.91;;;13.61;76.33
51245;BME280;37840;47.562;18.738;2024-03-22T09:29:13;99987.66;;;13.64;75.58
51245;BME280;37840;47.562;18.738;2024-03-22T09:31:39;99997.12;;;13.68;74.22
51245;BME280;37840;47.562;18.738;2024-03-22T09:34:05;99989.34;;;13.76;75.88
51245;BME280;37840;47.562;18.738;2024-03-22T09:36:31;99986.91;;;13.84;76.33
51245;BME280;37840;47.562;18.738;2024-03-22T09:39:01;99988.25;;;13.90;74.77
51245;BME280;37840;47.562;18.738;2024-03-22T09:41:31;99991.63;;;13.92;74.61
51245;BME280;37840;47.562;18.738;2024-03-22T09:43:58;99990.25;;;13.98;74.49
51245;BME280;37840;47.562;18.738;2024-03-22T09:46:26;99982.47;;;14.06;75.21
51245;BME280;37840;47.562;18.738;2024-03-22T09:48:53;99979.03;;;14.15;74.42
51245;BME280;37840;47.562;18.738;2024-03-22T09:51:20;99978.53;;;14.21;73.50
51245;BME280;37840;47.562;18.738;2024-03-22T09:53:51;99985.09;;;14.28;73.76
51245;BME280;37840;47.562;18.738;2024-03-22T09:56:21;99986.41;;;14.34;73.49
51245;BME280;37840;47.562;18.738;2024-03-22T09:58:47;99979.81;;;14.38;73.04
51245;BME280;37840;47.562;18.738;2024-03-22T10:01:13;99976.78;;;14.43;72.79
51245;BME280;37840;47.562;18.738;2024-03-22T10:03:39;99970.16;;;14.47;71.68
51245;BME280;37840;47.562;18.738;2024-03-22T10:06:06;99964.94;;;14.57;72.07
51245;BME280;37840;47.562;18.738;2024-03-22T10:08:32;99962.59;;;14.63;71.52
51245;BME280;37840;47.562;18.738;2024-03-22T10:11:01;99967.88;;;14.75;72.11
51245;BME280;37840;47.562;18.738;2024-03-22T10:13:28;99959.91;;;14.84;69.57
51245;BME280;37840;47.562;18.738;2024-03-22T10:15:56;99962.91;;;14.91;69.92
51245;BME280;37840;47.562;18.738;2024-03-22T10:18:22;99970.41;;;14.97;70.21
51245;BME280;37840;47.562;18.738;2024-03-22T10:21:02;99958.59;;;15.00;69.52
51245;BME280;37840;47.562;18.738;2024-03-22T10:23:29;99955.25;;;15.07;67.22
51245;BME280;37840;47.562;18.738;2024-03-22T10:25:59;99960.75;;;15.06;66.07
51245;BME280;37840;47.562;18.738;2024-03-22T10:28:26;99956.09;;;15.08;65.82
51245;BME280;37840;47.562;18.738;2024-03-22T10:30:53;99961.34;;;15.09;65.19
51245;BME280;37840;47.562;18.738;2024-03-22T10:33:20;99962.78;;;15.14;64.56
51245;BME280;37840;47.562;18.738;2024-03-22T10:35:51;99964.44;;;15.15;64.66
51245;BME280;37840;47.562;18.738;2024-03-22T10:38:21;99959.09;;;15.15;65.08
51245;BME280;37840;47.562;18.738;2024-03-22T10:40:48;99960.53;;;15.19;65.87
51245;BME280;37840;47.562;18.738;2024-03-22T10:43:15;99962.09;;;15.21;63.15
51245;BME280;37840;47.562;18.738;2024-03-22T10:45:41;99952.50;;;15.19;61.46
51245;BME280;37840;47.562;18.738;2024-03-22T10:48:12;99956.28;;;15.16;61.11
51245;BME280;37840;47.562;18.738;2024-03-22T10:50:39;99959.97;;;15.15;59.21
51245;BME280;37840;47.562;18.738;2024-03-22T10:53:08;99955.69;;;15.13;59.71
51245;BME280;37840;47.562;18.738;2024-03-22T10:55:37;99958.25;;;15.14;57.16
51245;BME280;37840;47.562;18.738;2024-03-22T10:58:05;99949.25;;;15.15;57.99
51245;BME280;37840;47.562;18.738;2024-03-22T11:00:32;99943.91;;;15.15;58.85
51245;BME280;37840;47.562;18.738;2024-03-22T11:02:59;99945.56;;;15.16;56.45
51245;BME280;37840;47.562;18.738;2024-03-22T11:05:28;99944.44;;;15.19;57.88
51245;BME280;37840;47.562;18.738;2024-03-22T11:08:04;99949.41;;;15.23;58.04
51245;BME280;37840;47.562;18.738;2024-03-22T11:10:33;99945.34;;;15.29;57.50
51245;BME280;37840;47.562;18.738;2024-03-22T11:13:06;99953.81;;;15.34;59.61
51245;BME280;37840;47.562;18.738;2024-03-22T11:15:33;99951.59;;;15.39;58.44
51245;BME280;37840;47.562;18.738;2024-03-22T11:17:59;99948.78;;;15.41;55.31
51245;BME280;37840;47.562;18.738;2024-03-22T11:20:29;99948.94;;;15.39;55.25
51245;BME280;37840;47.562;18.738;2024-03-22T11:22:56;99943.56;;;15.39;56.27
51245;BME280;37840;47.562;18.738;2024-03-22T11:25:22;99939.19;;;15.38;53.94
51245;BME280;37840;47.562;18.738;2024-03-22T11:27:48;99932.84;;;15.39;54.64
51245;BME280;37840;47.562;18.738;2024-03-22T11:30:15;99934.09;;;15.35;54.88
51245;BME280;37840;47.562;18.738;2024-03-22T11:32:43;99938.63;;;15.35;55.79
51245;BME280;37840;47.562;18.738;2024-03-22T11:35:13;99932.25;;;15.36;55.97
51245;BME280;37840;47.562;18.738;2024-03-22T11:37:39;99929.72;;;15.34;55.80
51245;BME280;37840;47.562;18.738;2024-03-22T11:40:08;99924.50;;;15.33;57.08
51245;BME280;37840;47.562;18.738;2024-03-22T11:42:41;99924.63;;;15.31;58.48
51245;BME280;37840;47.562;18.738;2024-03-22T11:45:08;99923.50;;;15.34;56.52
51245;BME280;37840;47.562;18.738;2024-03-22T11:47:35;99917.44;;;15.32;57.11
51245;BME280;37840;47.562;18.738;2024-03-22T11:50:02;99920.13;;;15.32;56.27
51245;BME280;37840;47.562;18.738;2024-03-22T11:52:29;99918.28;;;15.32;57.63
51245;BME280;37840;47.562;18.738;2024-03-22T11:54:56;99913.38;;;15.37;58.01
51245;BME280;37840;47.562;18.738;2024-03-22T11:57:23;99919.31;;;15.41;57.52
51245;BME280;37840;47.562;18.738;2024-03-22T11:59:50;99908.31;;;15.44;57.89
51245;BME280;37840;47.562;18.738;2024-03-22T12:02:17;99905.34;;;15.47;59.08
51245;BME280;37840;47.562;18.738;2024-03-22T12:04:45;99902.00;;;15.55;58.45
51245;BME280;37840;47.562;18.738;2024-03-22T12:07:15;99902.41;;;15.50;57.67
51245;BME280;37840;47.562;18.738;2024-03-22T12:09:41;99897.06;;;15.50;57.38
51245;BME280;37840;47.562;18.738;2024-03-22T12:12:08;99899.59;;;15.52;57.05
51245;BME280;37840;47.562;18.738;2024-03-22T12:14:35;99888.44;;;15.46;55.72
51245;BME280;37840;47.562;18.738;2024-03-22T12:17:05;99883.91;;;15.47;56.44
51245;BME280;37840;47.562;18.738;2024-03-22T12:19:31;99887.47;;;15.47;54.73
51245;BME280;37840;47.562;18.738;2024-03-22T12:21:58;99884.63;;;15.49;54.78
51245;BME280;37840;47.562;18.738;2024-03-22T12:24:24;99879.00;;;15.52;55.00
51245;BME280;37840;47.562;18.738;2024-03-22T12:26:50;99877.88;;;15.55;55.00
51245;BME280;37840;47.562;18.738;2024-03-22T12:29:16;99882.09;;;15.57;55.24
51245;BME280;37840;47.562;18.738;2024-03-22T12:31:43;99876.75;;;15.57;55.31
51245;BME280;37840;47.562;18.738;2024-03-22T12:34:09;99873.50;;;15.54;55.43
51245;BME280;37840;47.562;18.738;2024-03-22T12:36:35;99872.81;;;15.52;54.98
51245;BME280;37840;47.562;18.738;2024-03-22T12:39:01;99884.06;;;15.55;55.05
51245;BME280;37840;47.562;18.738;2024-03-22T12:41:27;99870.41;;;15.58;54.82
51245;BME280;37840;47.562;18.738;2024-03-22T12:43:55;99870.69;;;15.55;54.73
51245;BME280;37840;47.562;18.738;2024-03-22T12:46:21;99864.34;;;15.56;54.29